createdAt,value
2018-05-29T00:00:41.409Z,15.47
2018-05-29T00:03:09.494Z,14.77
2018-05-29T00:05:45.390Z,14.63
2018-05-29T00:08:28.577Z,15.67
2018-05-29T00:10:58.601Z,13.83
2018-05-29T00:13:27.456Z,14.43
2018-05-29T00:16:03.582Z,15.70
2018-05-29T00:18:31.670Z,15.70
2018-05-29T00:21:00.707Z,15.80
2018-05-29T00:23:28.786Z,16.20
2018-05-29T00:26:05.356Z,15.27
2018-05-29T00:28:34.847Z,15.67
2018-05-29T00:31:10.395Z,16.50
2018-05-29T00:33:38.470Z,15.10
2018-05-29T00:36:06.567Z,15.47
2018-05-29T00:38:35.411Z,15.93
2018-05-29T00:41:03.508Z,15.27
2018-05-29T00:43:31.592Z,16.90
2018-05-29T00:46:00.444Z,17.00
2018-05-29T00:48:28.529Z,15.73
2018-05-29T00:50:58.559Z,15.70
2018-05-29T00:53:26.650Z,16.13
2018-05-29T00:55:55.507Z,15.43
2018-05-29T00:58:23.584Z,15.53
2018-05-29T01:00:52.682Z,15.87
2018-05-29T01:03:20.769Z,15.53
2018-05-29T01:05:49.683Z,15.43
2018-05-29T01:08:17.813Z,16.23
2018-05-29T01:10:46.913Z,15.07
2018-05-29T01:13:15.073Z,16.23
2018-05-29T01:15:51.123Z,15.13
2018-05-29T01:18:19.225Z,14.97
2018-05-29T01:20:49.224Z,16.27
2018-05-29T01:23:17.314Z,15.43
2018-05-29T01:25:45.398Z,15.33
2018-05-29T01:28:13.550Z,15.37
2018-05-29T01:30:43.658Z,14.87
2018-05-29T01:33:11.815Z,15.33
2018-05-29T01:35:39.934Z,15.57
2018-05-29T01:38:08.082Z,14.23
2018-05-29T01:40:38.158Z,15.70
2018-05-29T01:43:13.774Z,16.50
2018-05-29T01:45:49.266Z,16.03
2018-05-29T01:48:24.359Z,16.63
2018-05-29T01:50:54.433Z,16.50
2018-05-29T01:53:22.524Z,16.90
2018-05-29T01:55:50.598Z,17.33
2018-05-29T01:58:18.731Z,16.77
2018-05-29T02:00:47.765Z,16.97
2018-05-29T02:03:16.617Z,16.67
2018-05-29T02:05:44.721Z,16.67
2018-05-29T02:08:12.824Z,16.80
2018-05-29T02:10:40.930Z,17.27
2018-05-29T02:13:09.118Z,18.67
2018-05-29T02:15:37.252Z,17.83
2018-05-29T02:18:13.108Z,17.07
2018-05-29T02:20:45.626Z,18.37
2018-05-29T02:23:13.709Z,17.43
2018-05-29T02:25:41.797Z,17.57
2018-05-29T02:28:17.950Z,18.37
2018-05-29T02:30:47.755Z,19.23
2018-05-29T02:33:15.837Z,18.27
2018-05-29T02:35:44.738Z,17.07
2018-05-29T02:38:12.828Z,16.97
2018-05-29T02:40:40.929Z,17.60
2018-05-29T02:43:09.018Z,18.03
2018-05-29T02:45:37.134Z,17.97
2018-05-29T02:48:05.216Z,17.87
2018-05-29T02:50:40.510Z,16.80
2018-05-29T02:53:08.605Z,17.03
2018-05-29T02:55:36.775Z,18.43
2018-05-29T02:58:04.938Z,17.40
2018-05-29T03:00:33.051Z,16.00
2018-05-29T03:03:01.164Z,18.03
2018-05-29T03:05:29.307Z,17.70
2018-05-29T03:07:57.421Z,17.07
2018-05-29T03:10:25.592Z,17.53
2018-05-29T03:12:53.751Z,17.50
2018-05-29T03:15:21.950Z,16.70
2018-05-29T03:17:50.067Z,17.13
2018-05-29T03:20:18.170Z,18.83
2018-05-29T03:22:47.211Z,17.27
2018-05-29T03:25:22.442Z,19.70
2018-05-29T03:27:58.370Z,18.73
2018-05-29T03:30:27.353Z,18.70
2018-05-29T03:32:55.440Z,17.97
2018-05-29T03:35:23.536Z,18.40
2018-05-29T03:37:51.638Z,18.87
2018-05-29T03:40:19.717Z,18.47
2018-05-29T03:45:20.036Z,18.20
2018-05-29T03:47:48.154Z,17.40
2018-05-29T03:50:16.247Z,18.53
2018-05-29T03:52:47.071Z,17.60
2018-05-29T03:55:15.178Z,18.83
2018-05-29T03:57:43.261Z,20.10
2018-05-29T04:00:12.174Z,20.57
2018-05-29T04:02:41.195Z,22.13
2018-05-29T04:05:09.279Z,21.97
2018-05-29T04:07:37.374Z,20.13
2018-05-29T04:10:05.461Z,21.13
2018-05-29T04:12:41.475Z,21.33
2018-05-29T04:15:09.559Z,21.67
2018-05-29T04:17:38.421Z,20.63
2018-05-29T04:20:06.506Z,19.97
2018-05-29T04:22:36.531Z,20.47
2018-05-29T04:25:05.456Z,20.23
2018-05-29T04:27:33.770Z,20.87
2018-05-29T04:30:01.882Z,23.20
2018-05-29T04:32:38.730Z,20.80
2018-05-29T04:35:06.817Z,22.17
2018-05-29T04:37:34.914Z,22.60
2018-05-29T04:40:03.008Z,22.83
2018-05-29T04:42:32.105Z,23.13
2018-05-29T04:45:00.218Z,23.27
2018-05-29T04:47:28.378Z,23.47
2018-05-29T04:49:56.495Z,23.87
2018-05-29T04:52:24.594Z,23.40
2018-05-29T04:54:52.719Z,22.73
2018-05-29T04:57:21.613Z,23.43
2018-05-29T04:59:50.532Z,24.80
2018-05-29T05:02:20.675Z,24.53
2018-05-29T05:04:49.402Z,24.03
2018-05-29T05:07:18.310Z,25.40
2018-05-29T05:09:47.200Z,25.03
2018-05-29T05:14:50.428Z,26.50
2018-05-29T05:17:19.296Z,25.70
2018-05-29T05:19:48.177Z,27.07
2018-05-29T05:22:17.026Z,27.50
2018-05-29T05:24:45.115Z,27.17
2018-05-29T05:27:13.287Z,26.53
2018-05-29T05:29:41.394Z,28.23
2018-05-29T05:32:16.124Z,27.63
2018-05-29T05:34:44.255Z,26.47
2018-05-29T05:37:12.407Z,28.57
2018-05-29T05:39:40.541Z,26.47
2018-05-29T05:42:10.343Z,27.07
2018-05-29T05:44:39.226Z,26.53
2018-05-29T05:47:08.122Z,24.77
2018-05-29T05:49:36.247Z,26.47
2018-05-29T05:52:05.278Z,25.67
2018-05-29T05:54:33.370Z,26.70
2018-05-29T05:57:02.222Z,24.67
2018-05-29T05:59:30.298Z,25.40
2018-05-29T06:01:58.492Z,24.97
2018-05-29T06:04:26.657Z,24.57
2018-05-29T06:06:54.763Z,25.07
2018-05-29T06:09:22.884Z,24.20
2018-05-29T06:11:51.984Z,23.80
2018-05-29T06:14:20.095Z,23.00
2018-05-29T06:16:48.251Z,21.97
2018-05-29T06:19:17.127Z,20.37
2018-05-29T06:21:47.153Z,20.77
2018-05-29T06:24:16.042Z,19.33
2018-05-29T06:26:44.181Z,18.60
2018-05-29T06:29:12.283Z,20.03
2018-05-29T06:31:42.297Z,19.57
2018-05-29T06:34:10.479Z,19.17
2018-05-29T06:36:38.557Z,18.67
2018-05-29T06:39:07.413Z,16.97
2018-05-29T06:41:35.486Z,17.73
2018-05-29T06:44:03.574Z,18.37
2018-05-29T06:46:31.651Z,16.63
2018-05-29T06:49:07.578Z,18.00
2018-05-29T06:51:45.266Z,17.80
2018-05-29T06:54:13.814Z,17.33
2018-05-29T06:56:41.926Z,15.73
2018-05-29T06:59:10.043Z,15.67
2018-05-29T07:01:39.870Z,16.73
2018-05-29T07:04:08.019Z,16.23
2018-05-29T07:06:36.950Z,16.10
2018-05-29T07:09:12.866Z,16.27
2018-05-29T07:11:43.690Z,15.73
2018-05-29T07:14:11.823Z,16.03
2018-05-29T07:16:39.910Z,15.43
2018-05-29T07:19:16.737Z,15.40
2018-05-29T07:21:46.831Z,15.43
2018-05-29T07:24:14.915Z,15.07
2018-05-29T07:26:43.815Z,15.03
2018-05-29T07:29:11.901Z,14.90
2018-05-29T07:31:40.958Z,14.93
2018-05-29T07:34:09.870Z,15.70
2018-05-29T07:36:38.058Z,15.00
2018-05-29T07:39:06.182Z,14.47
2018-05-29T07:41:41.851Z,13.97
2018-05-29T07:44:09.933Z,14.15
2018-05-29T07:46:38.798Z,14.60
2018-05-29T07:49:06.969Z,13.02
2018-05-29T07:51:35.983Z,13.50
2018-05-29T07:54:04.839Z,13.52
2018-05-29T07:56:32.940Z,13.80
2018-05-29T07:59:01.024Z,14.65
2018-05-29T08:01:31.903Z,14.02
2018-05-29T08:04:00.086Z,14.27
2018-05-29T08:06:35.090Z,13.95
2018-05-29T08:09:03.187Z,13.65
2018-05-29T08:11:33.266Z,13.35
2018-05-29T08:14:01.424Z,13.20
2018-05-29T08:16:29.586Z,14.23
2018-05-29T08:18:58.528Z,13.02
2018-05-29T08:21:26.670Z,14.25
2018-05-29T08:23:54.836Z,13.40
2018-05-29T08:26:23.746Z,14.27
2018-05-29T08:28:51.991Z,14.57
2018-05-29T08:31:21.834Z,13.93
2018-05-29T08:33:49.954Z,13.70
2018-05-29T08:36:18.089Z,13.55
2018-05-29T08:38:46.234Z,13.60
2018-05-29T08:41:15.378Z,13.13
2018-05-29T08:43:43.498Z,13.45
2018-05-29T08:46:12.434Z,12.98
2018-05-29T08:48:40.590Z,13.18
2018-05-29T08:51:08.776Z,13.23
2018-05-29T08:53:36.919Z,13.50
2018-05-29T08:56:05.788Z,13.82
2018-05-29T08:58:33.906Z,13.07
2018-05-29T09:01:02.039Z,13.10
2018-05-29T09:03:31.008Z,12.88
2018-05-29T09:05:59.173Z,13.13
2018-05-29T09:08:27.316Z,13.48
2018-05-29T09:10:55.456Z,13.00
2018-05-29T09:13:24.504Z,13.02
2018-05-29T09:15:52.692Z,13.10
2018-05-29T09:18:20.799Z,13.35
2018-05-29T09:20:50.645Z,12.82
2018-05-29T09:23:18.819Z,13.32
2018-05-29T09:25:46.967Z,12.80
2018-05-29T09:28:24.859Z,13.30
2018-05-29T09:30:55.687Z,13.80
2018-05-29T09:33:25.230Z,13.35
2018-05-29T09:35:53.351Z,12.20
2018-05-29T09:38:21.515Z,12.68
2018-05-29T09:40:51.609Z,13.25
2018-05-29T09:43:19.782Z,13.13
2018-05-29T09:45:47.961Z,13.07
2018-05-29T09:48:16.908Z,11.90
2018-05-29T09:50:46.930Z,13.65
2018-05-29T09:53:15.066Z,13.82
2018-05-29T09:55:43.203Z,11.82
2018-05-29T09:58:11.309Z,11.75
2018-05-29T10:00:40.244Z,12.10
2018-05-29T10:03:08.420Z,11.70
2018-05-29T10:05:36.534Z,11.15
2018-05-29T10:08:04.650Z,11.23
2018-05-29T10:10:34.450Z,10.65
2018-05-29T10:13:03.400Z,11.50
2018-05-29T10:15:31.543Z,11.10
2018-05-29T10:18:00.734Z,11.57
2018-05-29T10:20:28.878Z,11.65
2018-05-29T10:22:57.053Z,10.68
2018-05-29T10:25:25.184Z,11.32
2018-05-29T10:27:53.344Z,11.77
2018-05-29T10:30:21.450Z,11.50
2018-05-29T10:32:51.250Z,11.32
2018-05-29T10:35:19.336Z,11.20
2018-05-29T10:37:47.424Z,10.85
2018-05-29T10:40:15.503Z,10.75
2018-05-29T10:42:44.596Z,10.57
2018-05-29T10:45:13.183Z,10.65
2018-05-29T10:47:42.114Z,10.90
2018-05-29T10:50:10.200Z,10.55
2018-05-29T10:52:39.098Z,10.88
2018-05-29T10:55:07.184Z,10.93
2018-05-29T10:57:35.285Z,11.05
2018-05-29T11:00:04.164Z,11.93
2018-05-29T11:02:32.262Z,10.75
2018-05-29T11:05:00.421Z,10.85
2018-05-29T11:07:29.329Z,10.18
2018-05-29T11:09:57.454Z,10.57
2018-05-29T11:12:26.474Z,9.80
2018-05-29T11:14:55.394Z,10.65
2018-05-29T11:17:23.555Z,10.43
2018-05-29T11:19:51.727Z,10.25
2018-05-29T11:22:19.906Z,9.48
2018-05-29T11:24:48.063Z,9.93
2018-05-29T11:27:16.947Z,10.13
2018-05-29T11:29:45.114Z,9.75
2018-05-29T11:32:15.135Z,9.82
2018-05-29T11:34:43.304Z,9.52
2018-05-29T11:37:12.246Z,10.00
2018-05-29T11:39:40.401Z,11.02
2018-05-29T11:42:08.522Z,10.38
2018-05-29T11:44:36.691Z,10.45
2018-05-29T11:47:04.796Z,9.30
2018-05-29T11:49:33.671Z,10.43
2018-05-29T11:52:01.851Z,9.80
2018-05-29T11:54:31.675Z,9.75
2018-05-29T11:57:00.598Z,10.10
2018-05-29T11:59:28.754Z,10.77
2018-05-29T12:01:57.874Z,10.90
2018-05-29T12:04:25.994Z,10.57
2018-05-29T12:06:54.923Z,10.07
2018-05-29T12:09:23.083Z,10.52
2018-05-29T12:11:51.199Z,10.55
2018-05-29T12:14:19.315Z,9.65
2018-05-29T12:16:48.210Z,9.40
2018-05-29T12:19:16.282Z,9.18
2018-05-29T12:21:46.072Z,9.45
2018-05-29T12:24:14.163Z,8.73
2018-05-29T12:29:15.987Z,9.35
2018-05-29T12:31:46.049Z,8.98
2018-05-29T12:34:14.934Z,9.00
2018-05-29T12:36:43.016Z,8.93
2018-05-29T12:39:11.178Z,8.90
2018-05-29T12:41:40.289Z,8.82
2018-05-29T12:44:09.134Z,8.30
2018-05-29T12:46:37.210Z,8.35
2018-05-29T12:49:05.299Z,8.73
2018-05-29T12:51:43.070Z,7.78
2018-05-29T12:54:11.148Z,7.70
2018-05-29T12:59:12.200Z,6.87
2018-05-29T13:01:40.316Z,7.22
2018-05-29T13:04:09.182Z,7.40
2018-05-29T13:06:37.294Z,7.45
2018-05-29T13:09:05.439Z,7.70
2018-05-29T13:11:34.323Z,7.90
2018-05-29T13:14:02.436Z,8.38
2018-05-29T13:16:30.549Z,7.90
2018-05-29T13:18:58.657Z,8.85
2018-05-29T13:21:28.463Z,8.77
2018-05-29T13:23:57.339Z,8.52
2018-05-29T13:26:25.468Z,9.32
2018-05-29T13:28:53.646Z,8.80
2018-05-29T13:31:21.772Z,8.90
2018-05-29T13:33:51.437Z,8.85
2018-05-29T13:36:20.450Z,9.10
2018-05-29T13:38:49.686Z,9.77
2018-05-29T13:41:17.799Z,9.85
2018-05-29T13:43:45.910Z,9.63
2018-05-29T13:46:14.822Z,9.60
2018-05-29T13:48:43.014Z,10.63
2018-05-29T13:51:12.155Z,10.85
2018-05-29T13:53:41.403Z,10.90
2018-05-29T13:56:09.564Z,10.18
2018-05-29T13:58:37.663Z,9.85
2018-05-29T14:01:05.786Z,6.62
2018-05-29T14:03:34.700Z,8.48
2018-05-29T14:06:02.863Z,5.68
2018-05-29T14:08:31.776Z,5.22
2018-05-29T14:10:59.894Z,5.62
2018-05-29T14:13:27.993Z,5.65
2018-05-29T14:15:56.861Z,5.60
2018-05-29T14:18:24.950Z,5.25
2018-05-29T14:20:54.758Z,5.37
2018-05-29T14:23:23.720Z,5.95
2018-05-29T14:25:51.854Z,6.55
2018-05-29T14:28:19.962Z,8.07
2018-05-29T14:30:49.012Z,7.05
2018-05-29T14:33:17.136Z,8.00
2018-05-29T14:35:45.288Z,7.78
2018-05-29T14:38:13.430Z,8.18
2018-05-29T14:40:42.544Z,7.40
2018-05-29T14:43:10.661Z,7.40
2018-05-29T14:45:38.810Z,6.87
2018-05-29T14:48:06.909Z,7.25
2018-05-29T14:50:35.068Z,7.53
2018-05-29T14:53:03.228Z,7.80
2018-05-29T14:55:31.394Z,7.30
2018-05-29T14:57:59.510Z,6.50
2018-05-29T15:00:28.426Z,6.57
2018-05-29T15:02:56.514Z,6.50
2018-05-29T15:05:24.645Z,6.37
2018-05-29T15:07:53.865Z,5.95
2018-05-29T15:10:22.760Z,5.85
2018-05-29T15:12:50.862Z,5.78
2018-05-29T15:15:18.931Z,5.32
2018-05-29T15:17:47.013Z,5.97
2018-05-29T15:20:15.109Z,5.80
2018-05-29T15:22:43.187Z,6.20
2018-05-29T15:25:11.270Z,7.57
2018-05-29T15:27:40.134Z,7.10
2018-05-29T15:30:08.230Z,6.97
2018-05-29T15:32:39.041Z,7.47
2018-05-29T15:35:07.134Z,7.03
2018-05-29T15:42:47.310Z,9.85
2018-05-29T15:45:15.393Z,9.98
2018-05-29T15:47:44.262Z,10.93
2018-05-29T15:50:19.775Z,11.07
2018-05-29T15:52:47.874Z,11.23
2018-05-29T15:55:15.953Z,9.60
2018-05-29T15:57:53.140Z,10.52
2018-05-29T16:00:21.774Z,10.95
2018-05-29T16:02:57.686Z,11.07
2018-05-29T16:05:33.298Z,11.32
2018-05-29T16:08:08.838Z,10.63
2018-05-29T16:10:37.859Z,10.70
2018-05-29T16:13:08.027Z,12.18
2018-05-29T16:15:37.284Z,12.60
2018-05-29T16:18:05.463Z,12.27
2018-05-29T16:20:33.640Z,16.67
2018-05-29T16:23:01.721Z,11.87
2018-05-29T16:25:30.616Z,20.57
2018-05-29T16:27:59.553Z,20.23
2018-05-29T16:30:28.652Z,20.70
2018-05-29T16:32:56.835Z,10.70
2018-05-29T16:35:24.968Z,10.33
2018-05-29T16:37:53.121Z,20.17
2018-05-29T16:40:22.074Z,25.80
2018-05-29T16:42:50.227Z,17.27
2018-05-29T16:45:18.959Z,28.30
2018-05-29T16:47:47.924Z,52.97
2018-05-29T16:50:16.046Z,67.50
2018-05-29T16:52:44.238Z,53.67
2018-05-29T16:55:12.411Z,39.00
2018-05-29T16:57:40.607Z,35.07
2018-05-29T17:00:08.803Z,24.13
2018-05-29T17:02:37.042Z,42.03
2018-05-29T17:05:05.210Z,34.10
2018-05-29T17:07:33.363Z,29.43
2018-05-29T17:10:02.837Z,27.20
2018-05-29T17:12:31.660Z,30.23
2018-05-29T17:14:59.889Z,25.20
2018-05-29T17:17:28.032Z,19.50
2018-05-29T17:19:57.562Z,17.13
2018-05-29T17:22:27.755Z,12.50
2018-05-29T17:24:55.916Z,9.50
2018-05-29T17:27:24.093Z,12.63
2018-05-29T17:29:52.322Z,12.60
2018-05-29T17:32:21.382Z,14.47
2018-05-29T17:34:49.524Z,12.40
2018-05-29T17:37:17.702Z,14.63
2018-05-29T17:39:45.912Z,12.73
2018-05-29T17:42:16.069Z,12.13
2018-05-29T17:44:44.200Z,10.93
2018-05-29T17:47:12.404Z,15.30
2018-05-29T17:49:40.549Z,16.40
2018-05-29T17:52:09.655Z,17.00
2018-05-29T17:54:37.764Z,16.27
2018-05-29T17:57:06.709Z,20.30
2018-05-29T17:59:34.902Z,20.27
2018-05-29T18:02:03.041Z,21.73
2018-05-29T18:04:31.208Z,18.30
2018-05-29T18:06:59.375Z,21.77
2018-05-29T18:09:27.593Z,18.23
2018-05-29T18:11:56.721Z,18.20
2018-05-29T18:14:25.635Z,21.27
2018-05-29T18:16:53.839Z,18.80
2018-05-29T18:19:22.070Z,19.40
2018-05-29T18:21:50.228Z,15.63
2018-05-29T18:24:19.153Z,15.10
2018-05-29T18:26:47.366Z,15.27
2018-05-29T18:29:15.479Z,13.33
2018-05-29T18:31:43.656Z,12.33
2018-05-29T18:34:11.825Z,13.47
2018-05-29T18:36:40.724Z,13.80
2018-05-29T18:39:08.867Z,14.77
2018-05-29T18:41:38.109Z,14.27
2018-05-29T18:44:06.270Z,14.20
2018-05-29T18:46:34.395Z,14.73
2018-05-29T18:49:02.634Z,14.33
2018-05-29T18:51:31.534Z,13.27
2018-05-29T18:53:59.687Z,12.60
2018-05-29T18:56:27.840Z,11.97
2018-05-29T18:58:56.770Z,13.27
2018-05-29T19:01:28.492Z,12.53
2018-05-29T19:03:56.648Z,12.77
2018-05-29T19:06:25.551Z,14.23
2018-05-29T19:08:54.431Z,15.33
2018-05-29T19:11:25.336Z,12.40
2018-05-29T19:13:53.434Z,13.60
2018-05-29T19:16:21.529Z,12.80
2018-05-29T19:18:49.617Z,12.27
2018-05-29T19:21:18.662Z,12.70
2018-05-29T19:23:46.858Z,12.90
2018-05-29T19:26:15.784Z,13.37
2018-05-29T19:28:43.919Z,13.60
2018-05-29T19:31:13.722Z,12.73
2018-05-29T19:33:41.842Z,13.30
2018-05-29T19:36:09.999Z,12.93
2018-05-29T19:38:38.127Z,15.37
2018-05-29T19:41:06.232Z,16.70
2018-05-29T19:43:35.130Z,18.77
2018-05-29T19:46:03.311Z,15.73
2018-05-29T19:48:31.476Z,14.10
2018-05-29T19:50:59.697Z,17.30
2018-05-29T19:53:27.768Z,17.43
2018-05-29T19:55:55.893Z,13.53
2018-05-29T19:58:23.997Z,15.13
2018-05-29T20:00:54.086Z,12.40
2018-05-29T20:03:22.227Z,12.03
2018-05-29T20:05:51.144Z,11.43
2018-05-29T20:08:20.071Z,14.87
2018-05-29T20:10:49.177Z,15.10
2018-05-29T20:13:17.404Z,14.93
2018-05-29T20:15:45.599Z,14.87
2018-05-29T20:18:13.738Z,13.73
2018-05-29T20:20:43.607Z,12.90
2018-05-29T20:23:13.539Z,13.23
2018-05-29T20:25:41.696Z,14.83
2018-05-29T20:28:09.829Z,13.47
2018-05-29T20:30:38.996Z,14.17
2018-05-29T20:33:07.163Z,16.50
2018-05-29T20:35:35.334Z,14.30
2018-05-29T20:38:03.531Z,15.07
2018-05-29T20:40:32.432Z,17.27
2018-05-29T20:43:00.608Z,19.63
2018-05-29T20:45:28.776Z,16.83
2018-05-29T20:47:57.112Z,18.50
2018-05-29T20:50:25.233Z,19.13
2018-05-29T20:52:53.392Z,16.73
2018-05-29T20:55:22.318Z,17.60
2018-05-29T20:57:50.453Z,18.73
2018-05-29T21:00:19.408Z,17.27
2018-05-29T21:02:47.544Z,18.57
2018-05-29T21:05:15.701Z,17.47
2018-05-29T21:07:44.641Z,17.37
2018-05-29T21:10:12.769Z,18.83
2018-05-29T21:12:40.939Z,16.67
2018-05-29T21:15:09.106Z,18.63
2018-05-29T21:17:38.035Z,20.87
2018-05-29T21:20:06.208Z,18.20
2018-05-29T21:22:35.281Z,20.77
2018-05-29T21:25:03.431Z,20.47
2018-05-29T21:27:32.351Z,19.17
2018-05-29T21:30:00.470Z,18.40
2018-05-29T21:32:29.525Z,18.10
2018-05-29T21:34:57.703Z,17.20
2018-05-29T21:37:25.831Z,20.57
2018-05-29T21:39:54.736Z,19.77
2018-05-29T21:42:24.630Z,20.87
2018-05-29T21:44:52.805Z,18.33
2018-05-29T21:47:20.965Z,19.83
2018-05-29T21:49:49.153Z,18.43
2018-05-29T21:52:19.192Z,20.10
2018-05-29T21:54:48.071Z,19.37
2018-05-29T21:57:17.004Z,21.27
2018-05-29T21:59:45.164Z,20.40
2018-05-29T22:02:14.331Z,18.03
2018-05-29T22:04:42.474Z,21.10
2018-05-29T22:07:10.627Z,20.37
2018-05-29T22:09:38.787Z,18.83
2018-05-29T22:12:06.908Z,18.23
2018-05-29T22:14:35.084Z,18.13
2018-05-29T22:17:03.249Z,19.00
2018-05-29T22:19:31.464Z,17.83
2018-05-29T22:21:59.629Z,21.57
2018-05-29T22:24:28.527Z,18.33
2018-05-29T22:26:56.692Z,21.27
2018-05-29T22:29:24.871Z,20.13
2018-05-29T22:31:54.167Z,22.80
2018-05-29T22:34:23.064Z,22.80
2018-05-29T22:36:51.224Z,22.77
2018-05-29T22:39:20.159Z,23.37
2018-05-29T22:41:49.244Z,21.47
2018-05-29T22:44:17.380Z,28.00
2018-05-29T22:46:46.305Z,23.03
2018-05-29T22:49:14.505Z,21.80
2018-05-29T22:51:42.653Z,21.27
2018-05-29T22:54:10.796Z,20.77
2018-05-29T22:56:39.682Z,21.63
2018-05-29T22:59:08.574Z,20.83
2018-05-29T23:01:38.450Z,20.53
2018-05-29T23:04:06.607Z,19.03
2018-05-29T23:06:34.768Z,19.13
2018-05-29T23:09:02.908Z,18.00
2018-05-29T23:11:32.724Z,18.37
2018-05-29T23:14:01.653Z,20.43
2018-05-29T23:16:29.788Z,20.83
2018-05-29T23:18:58.683Z,18.17
2018-05-29T23:21:27.874Z,20.30
2018-05-29T23:23:56.778Z,21.03
2018-05-29T23:26:24.897Z,19.20
2018-05-29T23:28:53.013Z,20.27
2018-05-29T23:31:22.848Z,19.07
2018-05-29T23:33:51.012Z,20.43
2018-05-29T23:36:19.224Z,19.40
2018-05-29T23:38:47.453Z,20.43
2018-05-29T23:41:15.606Z,23.67
2018-05-29T23:43:44.556Z,24.47
2018-05-29T23:46:12.695Z,23.07
2018-05-29T23:48:40.835Z,24.20
2018-05-29T23:51:09.948Z,22.50
2018-05-29T23:53:38.845Z,21.90
2018-05-29T23:56:07.764Z,23.70
2018-05-29T23:58:35.882Z,21.27
